Time;durP1;ratioP1;P1;durP2;ratioP2;P2;SDS_P1;SDS_P2;PMS_P1;PMS_P2;Temp;Humidity;BMP_temperature;BMP_pressure;BME280_temperature;BME280_humidity;BME280_pressure;Samples;Min_cycle;Max_cycle;Signal;HPM_P1;HPM_P2
2023/07/04 00:00:21;;;;;;;11.43;4.22;;;;;;;14.80;82.85;101046.75;4976469;28;20030;-96
2023/07/04 00:02:51;;;;;;;13.18;4.20;;;;;;;14.79;82.85;101040.66;4978725;28;20026;-96
2023/07/04 00:05:29;;;;;;;11.80;4.07;;;;;;;14.78;82.97;101045.00;4979041;28;20045;-96
2023/07/04 00:08:02;;;;;;;15.85;4.18;;;;;;;14.78;83.18;101039.75;4974425;28;20093;-96
2023/07/04 00:10:39;;;;;;;13.02;4.22;;;;;;;14.77;83.04;101035.38;4974920;28;20027;-96
2023/07/04 00:13:07;;;;;;;11.70;4.15;;;;;;;14.76;83.28;101044.09;4973984;28;20027;-96
2023/07/04 00:15:34;;;;;;;14.93;4.47;;;;;;;14.74;83.23;101038.00;4981186;28;20121;-96
2023/07/04 00:18:00;;;;;;;14.88;4.50;;;;;;;14.78;82.79;101036.25;4981632;28;20062;-96
2023/07/04 00:20:36;;;;;;;;;;;;;;;;;;;;;
2023/07/04 00:23:04;;;;;;;11.20;3.90;;;;;;;14.76;82.67;101033.63;4991663;28;20044;-96
2023/07/04 00:25:34;;;;;;;12.07;4.00;;;;;;;14.74;82.78;101035.38;4982315;28;20030;-96
2023/07/04 00:28:05;;;;;;;13.68;3.88;;;;;;;14.74;83.60;101030.13;4984647;28;20551;-96
2023/07/04 00:30:39;;;;;;;15.68;4.00;;;;;;;14.73;83.31;101037.94;4978987;28;20022;-96
2023/07/04 00:33:07;;;;;;;11.32;4.03;;;;;;;14.72;83.07;101042.31;4979018;28;20046;-96
2023/07/04 00:35:36;;;;;;;13.18;4.25;;;;;;;14.72;83.21;101033.59;4985039;28;20042;-96
2023/07/04 00:38:11;;;;;;;12.13;4.35;;;;;;;14.70;83.31;101038.81;4959515;28;20051;-96
2023/07/04 00:40:36;;;;;;;12.98;4.00;;;;;;;14.70;83.23;101038.81;4966082;28;20039;-96
2023/07/04 00:43:04;;;;;;;11.95;4.22;;;;;;;14.69;83.18;101031.81;4958804;28;20035;-96
2023/07/04 00:45:37;;;;;;;12.40;4.18;;;;;;;14.65;83.81;101035.25;4967954;28;20494;-96
2023/07/04 00:48:06;;;;;;;15.07;4.55;;;;;;;14.63;83.71;101033.47;4964092;28;20515;-95
2023/07/04 00:50:43;;;;;;;12.68;4.20;;;;;;;14.61;82.23;101036.03;4954237;28;20369;-96
2023/07/04 00:53:15;;;;;;;14.20;4.05;;;;;;;14.60;83.81;101031.69;4958371;28;20062;-96
2023/07/04 00:55:47;;;;;;;11.43;3.97;;;;;;;14.60;83.82;101027.31;4960752;28;20034;-95
2023/07/04 00:58:16;;;;;;;16.08;4.43;;;;;;;14.58;84.92;101034.31;4959458;28;20033;-96
2023/07/04 01:00:44;;;;;;;17.13;4.53;;;;;;;14.62;84.09;101036.97;4953760;28;20583;-96
2023/07/04 01:03:24;;;;;;;16.15;4.65;;;;;;;14.59;84.56;101029.94;4961748;28;20031;-95
2023/07/04 01:06:00;;;;;;;16.58;4.65;;;;;;;14.59;82.81;101035.16;4961522;28;20962;-96
2023/07/04 01:08:59;;;;;;;13.60;4.80;;;;;;;14.60;83.83;101036.94;4963272;28;20062;-95
2023/07/04 01:11:42;;;;;;;12.80;4.38;;;;;;;14.62;81.16;101037.84;4955445;28;20026;-96
2023/07/04 01:14:27;;;;;;;14.35;4.85;;;;;;;14.68;83.68;101030.03;4967218;28;20029;-96
2023/07/04 01:16:57;;;;;;;9.98;4.03;;;;;;;14.66;82.82;101030.91;4967060;28;20030;-96
2023/07/04 01:19:32;;;;;;;15.60;4.50;;;;;;;14.64;84.57;101038.72;4955102;28;20047;-96
2023/07/04 01:22:39;;;;;;;15.50;4.38;;;;;;;14.64;84.54;101030.88;4962775;28;20038;-96
2023/07/04 01:25:28;;;;;;;12.93;4.35;;;;;;;14.61;84.75;101033.44;4931990;28;20042;-95
2023/07/04 01:27:59;;;;;;;12.13;4.30;;;;;;;14.57;85.20;101045.66;4959085;28;20030;-96
2023/07/04 01:30:34;;;;;;;17.08;4.50;;;;;;;14.57;83.96;101047.38;4963652;28;20034;-95
2023/07/04 01:33:12;;;;;;;;;;;;;;;;;;;;;
2023/07/04 01:35:41;;;;;;;16.08;4.68;;;;;;;14.55;85.09;101044.72;4976120;28;20023;-96
2023/07/04 01:38:11;;;;;;;14.52;4.40;;;;;;;14.53;84.18;101042.97;4962495;28;20109;-96
2023/07/04 01:40:39;;;;;;;13.77;4.75;;;;;;;14.54;85.39;101047.34;4962778;28;20026;-96
2023/07/04 01:43:07;;;;;;;15.98;4.95;;;;;;;14.54;85.27;101050.84;4970715;28;20488;-96
2023/07/04 01:45:32;;;;;;;15.15;4.68;;;;;;;14.53;85.54;101042.97;4968490;28;20023;-96
2023/07/04 01:47:58;;;;;;;11.93;4.30;;;;;;;14.50;84.56;101042.94;4971671;28;20105;-95
2023/07/04 01:50:30;;;;;;;17.42;5.03;;;;;;;14.46;84.52;101041.16;4966952;28;20034;-96
2023/07/04 01:52:58;;;;;;;16.55;4.90;;;;;;;14.50;86.53;101050.81;4965783;28;20480;-94
2023/07/04 01:55:27;;;;;;;14.53;4.90;;;;;;;14.49;84.73;101043.81;4972099;28;20031;-96
2023/07/04 01:57:55;;;;;;;13.68;5.00;;;;;;;14.53;85.73;101049.09;4958590;28;20353;-96
2023/07/04 02:00:22;;;;;;;15.75;5.00;;;;;;;14.58;86.43;101050.03;4959793;28;20114;-96
2023/07/04 02:02:49;;;;;;;12.82;4.95;;;;;;;14.60;86.38;101050.91;4961116;28;20035;-96
2023/07/04 02:05:19;;;;;;;16.02;5.32;;;;;;;14.61;87.17;101049.16;4956616;28;20027;-95
2023/07/04 02:08:05;;;;;;;16.73;5.43;;;;;;;14.53;87.15;101038.59;4968147;28;20023;-95
2023/07/04 02:10:31;;;;;;;13.20;4.93;;;;;;;14.55;86.54;101033.38;4961506;28;20027;-96
2023/07/04 02:12:59;;;;;;;13.07;5.00;;;;;;;14.54;87.59;101034.22;4959913;28;20038;-96
2023/07/04 02:15:32;;;;;;;13.52;4.70;;;;;;;14.53;87.22;101033.34;4958315;28;20021;-96
2023/07/04 02:17:57;;;;;;;12.43;4.65;;;;;;;14.57;87.91;101040.41;4958262;28;20034;-95
2023/07/04 02:20:31;;;;;;;14.70;4.80;;;;;;;14.56;86.70;101032.53;4949540;28;20435;-96
2023/07/04 02:22:59;;;;;;;18.50;5.40;;;;;;;14.55;87.15;101025.50;4952420;28;20042;-96
2023/07/04 02:25:24;;;;;;;14.95;4.60;;;;;;;14.59;86.49;101029.94;4960222;28;20105;-96
2023/07/04 02:27:56;;;;;;;16.00;5.15;;;;;;;14.62;88.38;101035.22;4957107;28;20066;-96
2023/07/04 02:30:58;;;;;;;;;;;;;;;;;;;;;
2023/07/04 02:33:24;;;;;;;14.60;4.50;;;;;;;14.74;87.57;101044.94;4981054;28;20395;-96
2023/07/04 02:35:50;;;;;;;15.27;4.85;;;;;;;14.74;87.28;101039.72;4967668;28;20102;-95
2023/07/04 02:38:33;;;;;;;16.92;4.97;;;;;;;14.76;87.82;101040.63;4972170;28;21094;-96
2023/07/04 02:41:04;;;;;;;15.85;4.68;;;;;;;14.77;87.73;101044.97;4971432;28;20030;-96
2023/07/04 02:44:22;;;;;;;13.93;4.80;;;;;;;14.77;88.49;101056.38;4978778;28;20060;-96
2023/07/04 02:47:26;;;;;;;13.75;5.07;;;;;;;14.80;89.54;101045.00;4980083;28;20027;-96
2023/07/04 02:50:07;;;;;;;;;;;;;;;;;;;;;
2023/07/04 02:52:48;;;;;;;12.70;4.97;;;;;;;14.58;89.18;101046.50;4995927;28;20113;-96
2023/07/04 02:55:49;;;;;;;12.93;4.70;;;;;;;14.39;89.30;101045.44;4992413;28;20097;-96
2023/07/04 02:58:54;;;;;;;17.25;4.78;;;;;;;14.30;90.72;101038.34;4985879;28;20033;-96
2023/07/04 03:05:21;;;;;;;;;;;;;;;;;;;;;
2023/07/04 03:08:25;;;;;;;15.00;5.93;;;;;;;14.13;93.36;101039.91;4933107;29;20095;-96
2023/07/04 03:11:37;;;;;;;11.32;5.32;;;;;;;14.21;92.16;101048.75;4827716;29;20045;-96
2023/07/04 03:14:11;;;;;;;17.52;6.28;;;;;;;14.12;93.62;101038.13;4827850;29;20172;-96
2023/07/04 03:16:43;;;;;;;13.30;5.93;;;;;;;14.03;94.43;101034.56;4970517;28;20813;-96
2023/07/04 03:19:54;;;;;;;11.73;5.55;;;;;;;14.03;93.74;101044.13;4986870;28;20085;-96
2023/07/04 03:23:01;;;;;;;12.73;5.82;;;;;;;13.99;93.01;101048.47;4988336;28;20070;-96
2023/07/04 03:25:48;;;;;;;14.10;5.65;;;;;;;14.03;91.92;101039.81;4981298;28;20031;-96
2023/07/04 03:29:02;;;;;;;;;;;;;;;;;;;;;
2023/07/04 03:32:39;;;;;;;;;;;;;;;;;;;;;
2023/07/04 03:39:17;;;;;;;;;;;;;;;;;;;;;
2023/07/04 03:41:48;;;;;;;12.35;4.65;;;;;;;13.66;90.77;101052.38;4980577;28;20834;-96
2023/07/04 03:44:36;;;;;;;11.52;4.95;;;;;;;13.65;92.40;101053.25;4971439;28;20070;-96
2023/07/04 03:47:40;;;;;;;;;;;;;;;;;;;;;
2023/07/04 04:03:09;;;;;;;;;;;;;;;;;;;;;
2023/07/04 04:06:37;;;;;;;15.98;5.22;;;;;;;13.76;96.06;101055.13;4971045;28;20105;-96
2023/07/04 04:09:24;;;;;;;16.00;5.32;;;;;;;13.78;94.83;101063.91;4965381;28;20035;-96
2023/07/04 04:11:59;;;;;;;18.77;5.78;;;;;;;13.77;96.96;101072.59;4971261;28;20043;-96
2023/07/04 04:14:38;;;;;;;14.20;5.32;;;;;;;13.79;97.16;101065.63;4961164;28;20042;-95
2023/07/04 04:17:39;;;;;;;;;;;;;;;;;;;;;
2023/07/04 04:20:37;;;;;;;15.55;5.85;;;;;;;13.83;97.47;101059.59;4973358;28;20033;-96
2023/07/04 04:26:32;;;;;;;19.05;5.95;;;;;;;13.84;95.74;101059.59;4973257;28;20035;-96
2023/07/04 04:29:03;;;;;;;17.13;5.75;;;;;;;13.90;97.58;101074.53;4966725;28;20117;-95
2023/07/04 04:31:47;;;;;;;17.20;6.07;;;;;;;13.92;97.16;101067.59;4959891;28;20027;-95
2023/07/04 04:34:31;;;;;;;;;;;;;;;;;;;;;
2023/07/04 04:37:23;;;;;;;17.15;5.72;;;;;;;13.95;97.18;101072.88;4981920;28;20045;-96
2023/07/04 04:40:18;;;;;;;;;;;;;;;;;;;;;
2023/07/04 04:42:44;;;;;;;18.15;5.95;;;;;;;13.95;97.49;101082.44;4992378;28;20037;-96
2023/07/04 04:45:24;;;;;;;13.23;5.75;;;;;;;13.97;97.63;101086.00;4978876;28;20113;-96
2023/07/04 04:48:25;;;;;;;17.88;6.72;;;;;;;13.92;98.57;101088.56;4989069;28;20027;-96
2023/07/04 04:50:46;;;;;;;21.05;6.10;;;;;;;13.90;98.18;101090.25;4994741;28;20116;-96
2023/07/04 04:53:37;;;;;;;20.83;6.43;;;;;;;13.90;98.18;101085.91;4974348;28;20038;-96
2023/07/04 04:56:25;;;;;;;20.55;6.38;;;;;;;13.90;98.52;101090.25;5006907;28;20500;-96
2023/07/04 04:59:01;;;;;;;19.93;6.50;;;;;;;13.95;97.72;101088.59;4979462;28;20030;-96
2023/07/04 05:01:47;;;;;;;16.45;6.05;;;;;;;13.97;98.43;101079.00;4976612;28;20314;-96
2023/07/04 05:04:42;;;;;;;14.50;5.47;;;;;;;13.99;96.42;101085.16;4977092;28;20088;-96
2023/07/04 05:07:23;;;;;;;16.30;6.00;;;;;;;14.04;97.64;101088.69;4975946;28;20546;-96
2023/07/04 05:10:02;;;;;;;18.85;6.68;;;;;;;14.04;97.00;101091.31;4979038;28;20089;-96
2023/07/04 05:12:39;;;;;;;19.13;6.38;;;;;;;14.07;97.70;101095.72;4983513;28;20032;-95
2023/07/04 05:15:10;;;;;;;20.33;6.63;;;;;;;14.08;98.00;101097.50;4981926;28;20104;-96
2023/07/04 05:17:46;;;;;;;16.63;6.57;;;;;;;14.10;97.79;101093.13;4981592;28;20025;-96
2023/07/04 05:20:46;;;;;;;;;;;;;;;;;;;;;
2023/07/04 05:23:13;;;;;;;16.45;6.68;;;;;;;14.14;97.65;101094.94;4990738;28;20503;-96
2023/07/04 05:25:39;;;;;;;14.02;5.90;;;;;;;14.18;97.72;101098.47;5004532;28;20074;-96
2023/07/04 05:28:09;;;;;;;17.75;6.05;;;;;;;14.27;96.90;101096.84;4978799;28;20058;-95
2023/07/04 05:30:43;;;;;;;21.70;7.28;;;;;;;14.25;97.45;101098.59;5000369;28;20638;-95
2023/07/04 05:33:23;;;;;;;18.40;6.25;;;;;;;14.30;96.49;101111.75;4987158;28;20041;-96
2023/07/04 05:35:48;;;;;;;20.17;6.10;;;;;;;14.33;97.02;101110.91;4979211;28;20026;-96
2023/07/04 05:38:14;;;;;;;18.77;6.32;;;;;;;14.33;95.06;101106.53;4978796;28;20026;-96
2023/07/04 05:40:50;;;;;;;20.73;6.93;;;;;;;14.40;96.18;101108.38;4973297;28;20113;-94
2023/07/04 05:43:18;;;;;;;20.88;7.57;;;;;;;14.40;96.05;101104.88;4979638;28;20022;-96
2023/07/04 05:45:54;;;;;;;22.50;6.67;;;;;;;14.42;94.98;101109.28;4978264;28;20022;-95
2023/07/04 05:48:22;;;;;;;23.05;6.85;;;;;;;14.45;96.78;101111.03;4980919;28;20120;-95
2023/07/04 05:50:57;;;;;;;21.02;6.47;;;;;;;14.47;96.33;101121.53;4974149;28;20034;-96
2023/07/04 05:53:31;;;;;;;19.08;6.25;;;;;;;14.53;95.79;101113.78;4982904;28;20035;-96
2023/07/04 05:56:12;;;;;;;16.75;5.82;;;;;;;14.62;94.84;101118.28;4981059;28;20053;-95
2023/07/04 05:58:50;;;;;;;19.73;6.18;;;;;;;14.68;95.25;101116.59;4987406;28;20038;-96
2023/07/04 06:01:38;;;;;;;21.05;6.00;;;;;;;14.77;95.01;101110.56;4978290;28;20018;-96
2023/07/04 06:04:08;;;;;;;18.50;6.20;;;;;;;14.82;94.18;101110.63;4982297;28;20056;-96
2023/07/04 06:06:53;;;;;;;19.40;5.85;;;;;;;14.88;92.82;101114.19;4980631;28;20621;-96
2023/07/04 06:09:20;;;;;;;26.27;6.53;;;;;;;14.92;94.07;101120.34;4978462;28;20041;-96
2023/07/04 06:11:51;;;;;;;17.75;6.00;;;;;;;14.94;93.41;101116.00;4973711;28;20394;-95
2023/07/04 06:14:31;;;;;;;18.50;5.45;;;;;;;15.01;93.69;101127.44;4975006;28;20030;-95
2023/07/04 06:16:56;;;;;;;;;;;;;;;15.15;91.59;101132.81;4976253;28;20109;-95
2023/07/04 06:19:25;;;;;;;19.05;5.50;;;;;;;15.19;92.14;101131.97;4974302;28;19941;-96
2023/07/04 06:21:51;;;;;;;15.20;5.55;;;;;;;15.23;92.91;101132.00;4966770;28;20026;-96
2023/07/04 06:24:17;;;;;;;20.08;5.95;;;;;;;15.27;92.87;101135.56;4998386;28;20035;-95
2023/07/04 06:26:47;;;;;;;23.83;6.45;;;;;;;15.35;91.55;101139.13;4979945;28;20036;-96
2023/07/04 06:29:12;;;;;;;16.90;6.03;;;;;;;15.43;90.63;101132.19;4979826;28;20030;-95
2023/07/04 06:34:49;;;;;;;21.65;6.07;;;;;;;15.56;89.82;101127.91;5005157;28;20049;-95
2023/07/04 06:37:17;;;;;;;18.15;6.32;;;;;;;15.61;88.84;101136.72;4960952;28;20043;-96
2023/07/04 06:39:43;;;;;;;16.83;5.63;;;;;;;15.71;87.43;101129.75;4947741;28;21047;-95
2023/07/04 06:42:11;;;;;;;21.17;6.05;;;;;;;15.79;85.79;101140.38;4963258;28;20026;-96
2023/07/04 06:44:37;;;;;;;19.85;6.00;;;;;;;15.85;86.97;101144.78;4976887;28;20033;-96
2023/07/04 06:47:02;;;;;;;17.90;6.47;;;;;;;15.92;87.45;101142.19;4957561;28;20026;-96
2023/07/04 06:49:30;;;;;;;16.40;5.55;;;;;;;15.97;85.17;101145.75;4965826;28;20018;-96
2023/07/04 06:51:59;;;;;;;21.83;5.78;;;;;;;15.96;86.22;101154.50;4957273;28;20447;-96
2023/07/04 06:54:25;;;;;;;17.33;5.85;;;;;;;16.02;86.62;101148.41;4977801;23;20073;-61
2023/07/04 06:56:50;;;;;;;14.60;5.80;;;;;;;16.07;85.45;101157.19;4966621;28;20514;-61
2023/07/04 06:59:15;;;;;;;12.77;5.32;;;;;;;16.10;82.67;101157.19;4965662;28;20030;-61
2023/07/04 07:01:42;;;;;;;18.58;4.78;;;;;;;15.97;82.29;101168.50;4967305;28;20040;-61
2023/07/04 07:04:07;;;;;;;15.07;5.25;;;;;;;15.98;79.32;101162.38;4965614;28;20029;-61
2023/07/04 07:06:32;;;;;;;14.32;5.53;;;;;;;16.01;78.65;101175.53;4964795;28;20046;-61
2023/07/04 07:08:58;;;;;;;16.40;6.13;;;;;;;16.06;78.65;101173.84;4966086;28;20027;-61
2023/07/04 07:11:24;;;;;;;13.63;5.18;;;;;;;16.17;76.56;101169.50;4965663;28;20545;-61
2023/07/04 07:13:50;;;;;;;13.68;6.13;;;;;;;16.10;78.35;101166.84;4966912;28;20031;-61
2023/07/04 07:16:19;;;;;;;17.52;6.07;;;;;;;16.10;79.72;101164.22;4965357;28;20046;-61
2023/07/04 07:18:46;;;;;;;11.90;5.40;;;;;;;16.22;76.56;101166.91;4963940;28;20058;-61
2023/07/04 07:21:15;;;;;;;15.60;5.18;;;;;;;16.20;77.74;101159.88;4964883;28;20042;-61
2023/07/04 07:23:41;;;;;;;16.90;5.70;;;;;;;16.34;77.37;101168.72;4966107;28;20384;-63
2023/07/04 07:26:09;;;;;;;14.65;5.40;;;;;;;16.41;76.57;101164.34;4965163;28;20042;-62
2023/07/04 07:28:39;;;;;;;14.35;5.60;;;;;;;16.42;76.81;101169.63;4966709;28;20039;-62
2023/07/04 07:31:18;;;;;;;18.58;5.68;;;;;;;16.39;76.10;101174.88;4966045;28;20088;-63
2023/07/04 07:33:45;;;;;;;15.85;5.75;;;;;;;16.48;75.16;101180.19;4966470;28;20026;-62
2023/07/04 07:36:39;;;;;;;16.25;5.40;;;;;;;16.51;74.52;101185.47;4965561;28;20062;-63
2023/07/04 07:39:06;;;;;;;15.85;5.40;;;;;;;16.52;75.30;101181.97;4966041;28;20148;-62
2023/07/04 07:41:34;;;;;;;17.45;6.03;;;;;;;16.58;74.82;101175.84;4967030;28;20027;-62
2023/07/04 07:44:00;;;;;;;13.80;5.70;;;;;;;16.65;75.21;101171.50;4965602;28;20115;-62
2023/07/04 07:46:25;;;;;;;20.00;5.60;;;;;;;16.83;74.11;101179.44;4965660;28;20036;-63
2023/07/04 07:48:51;;;;;;;14.05;5.55;;;;;;;16.94;71.54;101187.41;4966295;28;20023;-62
2023/07/04 07:51:18;;;;;;;12.73;5.57;;;;;;;16.97;72.16;101174.25;4966617;28;20109;-62
2023/07/04 07:53:45;;;;;;;13.48;6.10;;;;;;;17.02;72.11;101185.66;4971614;28;20497;-62
2023/07/04 07:56:14;;;;;;;18.92;6.82;;;;;;;17.15;70.61;101188.34;4985607;28;20100;-63
2023/07/04 07:58:39;;;;;;;16.05;6.80;;;;;;;17.10;69.12;101193.56;4985130;28;20128;-62
2023/07/04 08:01:11;;;;;;;15.45;6.43;;;;;;;17.29;67.93;101183.09;4981639;28;20512;-64
2023/07/04 08:03:36;;;;;;;18.00;6.82;;;;;;;17.24;70.96;101192.75;4984748;28;20088;-63
2023/07/04 08:06:01;;;;;;;14.70;6.40;;;;;;;17.37;69.45;101195.38;4980740;28;20030;-62
2023/07/04 08:08:27;;;;;;;14.90;6.53;;;;;;;17.54;70.24;101202.44;4967026;28;20026;-63
2023/07/04 08:10:52;;;;;;;12.52;5.45;;;;;;;17.75;68.19;101211.22;4981156;28;20030;-62
2023/07/04 08:13:18;;;;;;;14.93;6.03;;;;;;;17.56;67.56;101195.41;4984997;28;20194;-62
2023/07/04 08:15:50;;;;;;;12.40;6.10;;;;;;;17.49;69.57;101205.06;4985557;28;20113;-62
2023/07/04 08:18:15;;;;;;;15.05;5.50;;;;;;;17.63;71.41;101201.56;5012361;23;20164;-63
2023/07/04 08:20:41;;;;;;;14.30;4.80;;;;;;;17.70;67.12;101198.91;4985313;28;20684;-64
2023/07/04 08:23:12;;;;;;;11.70;5.20;;;;;;;17.76;70.32;101195.41;5054837;23;20828;-95
2023/07/04 08:25:40;;;;;;;14.15;4.80;;;;;;;17.97;66.22;101185.75;4977761;28;20123;-94
2023/07/04 08:28:08;;;;;;;15.60;5.15;;;;;;;17.96;65.00;101194.53;4974138;28;20022;-95
2023/07/04 08:30:36;;;;;;;13.77;4.93;;;;;;;17.97;64.68;101201.56;4973328;28;20054;-95
2023/07/04 08:33:02;;;;;;;10.20;3.63;;;;;;;18.20;61.29;101210.31;4980810;28;20037;-95
2023/07/04 08:35:28;;;;;;;11.27;3.00;;;;;;;18.17;59.32;101204.19;4978299;28;20030;-95
2023/07/04 08:37:53;;;;;;;10.43;4.10;;;;;;;18.15;61.78;101187.50;4982169;28;20357;-95
2023/07/04 08:40:24;;;;;;;10.88;4.13;;;;;;;18.06;63.11;101191.88;4984459;28;20108;-96
2023/07/04 08:42:56;;;;;;;13.45;4.25;;;;;;;18.09;63.05;101177.81;4983859;28;20053;-95
2023/07/04 08:45:26;;;;;;;9.98;3.72;;;;;;;18.29;60.55;101176.88;4981986;28;20520;-96
2023/07/04 08:47:57;;;;;;;10.77;3.42;;;;;;;18.33;59.52;101189.19;4981932;28;20034;-96
2023/07/04 08:50:29;;;;;;;9.63;3.35;;;;;;;18.37;62.38;101191.81;4982335;28;20053;-95
2023/07/04 08:53:30;;;;;;;15.00;4.22;;;;;;;18.59;61.07;101189.97;5000651;28;20022;-96
2023/07/04 08:56:33;;;;;;;;;;;;;;;;;;;;;
2023/07/04 08:59:21;;;;;;;12.57;3.70;;;;;;;18.88;56.66;101203.97;4940969;29;20035;-96
2023/07/04 09:02:24;;;;;;;8.40;3.22;;;;;;;19.02;56.70;101201.25;4940875;29;20481;-95
2023/07/04 09:04:56;;;;;;;9.88;3.05;;;;;;;18.94;54.76;101203.91;4973700;28;20034;-96
2023/07/04 09:07:33;;;;;;;9.75;2.50;;;;;;;18.87;54.67;101212.75;5002885;28;20675;-95
2023/07/04 09:10:28;;;;;;;10.65;2.90;;;;;;;18.97;54.35;101203.88;4999462;28;20038;-95
2023/07/04 09:12:53;;;;;;;8.95;3.03;;;;;;;19.14;56.61;101211.72;4929709;28;20122;-95
2023/07/04 09:15:43;;;;;;;9.85;3.20;;;;;;;19.34;55.95;101214.25;4998707;28;20115;-95
2023/07/04 09:18:08;;;;;;;8.70;3.30;;;;;;;19.49;55.13;101220.31;5001350;28;20022;-94
2023/07/04 09:20:46;;;;;;;7.45;2.30;;;;;;;19.37;51.42;101224.78;5002391;28;20092;-96
2023/07/04 09:23:19;;;;;;;10.50;2.90;;;;;;;19.24;52.94;101224.00;4996767;28;20069;-96
2023/07/04 09:25:55;;;;;;;9.73;4.05;;;;;;;19.06;52.89;101219.72;4998708;28;20033;-95
2023/07/04 09:28:20;;;;;;;9.25;3.88;;;;;;;19.17;56.36;101217.00;4989015;23;20043;-65
2023/07/04 09:30:46;;;;;;;9.60;4.20;;;;;;;19.31;55.43;101216.91;4979813;28;20026;-65
2023/07/04 09:33:14;;;;;;;12.65;4.50;;;;;;;19.39;56.08;101224.78;4980332;28;20113;-65
2023/07/04 09:35:40;;;;;;;13.17;4.77;;;;;;;19.45;54.83;101227.38;4980506;28;20472;-65
2023/07/04 09:38:05;;;;;;;9.60;4.57;;;;;;;19.59;55.28;101235.22;4980389;28;20114;-65
2023/07/04 09:40:52;;;;;;;14.45;5.15;;;;;;;19.80;55.44;101234.22;4979449;28;20045;-64
2023/07/04 09:43:33;;;;;;;8.90;5.00;;;;;;;19.92;53.10;101239.38;4979686;28;20041;-65
2023/07/04 09:46:23;;;;;;;10.38;5.43;;;;;;;19.97;53.06;101242.88;4979138;28;20069;-65
2023/07/04 09:48:50;;;;;;;11.57;5.28;;;;;;;19.85;54.01;101235.03;4970523;28;20082;-66
2023/07/04 09:51:18;;;;;;;13.38;5.82;;;;;;;19.92;54.66;101234.09;4980478;28;20026;-65
2023/07/04 09:53:44;;;;;;;11.77;5.32;;;;;;;20.07;52.95;101227.75;4979476;28;20405;-65
2023/07/04 09:56:11;;;;;;;12.70;5.80;;;;;;;20.10;53.82;101230.41;4980458;28;20037;-67
2023/07/04 09:58:36;;;;;;;11.60;6.13;;;;;;;20.15;52.96;101233.00;4980331;28;20085;-65
2023/07/04 10:01:16;;;;;;;10.07;5.25;;;;;;;20.26;53.13;101239.06;4979656;28;20034;-65
2023/07/04 10:03:45;;;;;;;8.30;4.68;;;;;;;20.24;50.39;101240.84;4968402;28;20041;-66
2023/07/04 10:06:11;;;;;;;8.52;5.40;;;;;;;20.17;53.88;101244.44;4978625;28;20038;-65
2023/07/04 10:08:57;;;;;;;6.90;4.50;;;;;;;20.49;50.00;101237.94;4979336;28;20501;-65
2023/07/04 10:11:39;;;;;;;10.88;4.35;;;;;;;20.58;50.94;101219.31;4979291;28;20034;-66
2023/07/04 10:14:08;;;;;;;11.27;4.57;;;;;;;20.71;48.21;101227.13;4978910;28;20518;-65
2023/07/04 10:16:34;;;;;;;8.05;3.33;;;;;;;20.86;48.31;101229.59;4977467;28;20022;-65
2023/07/04 10:19:11;;;;;;;8.88;3.88;;;;;;;20.78;48.98;101220.84;4978789;28;20033;-65
2023/07/04 10:21:45;;;;;;;7.53;3.60;;;;;;;20.93;48.36;101220.66;4978750;28;20117;-65
2023/07/04 10:24:17;;;;;;;10.35;4.28;;;;;;;20.93;50.57;101225.06;4976766;28;20498;-65
2023/07/04 10:26:45;;;;;;;10.15;4.13;;;;;;;21.15;48.65;101228.31;4978723;28;20034;-64
2023/07/04 10:29:11;;;;;;;11.20;4.20;;;;;;;21.25;49.14;101229.06;5009447;28;20496;-64
2023/07/04 10:31:37;;;;;;;7.88;3.65;;;;;;;21.16;50.37;101227.38;5015492;28;20033;-64
2023/07/04 10:34:07;;;;;;;7.20;3.38;;;;;;;21.18;52.55;101230.91;5014732;28;20034;-64
2023/07/04 10:36:35;;;;;;;7.53;3.65;;;;;;;21.19;49.94;101216.78;5016141;28;20060;-64
2023/07/04 10:39:06;;;;;;;8.70;2.90;;;;;;;21.41;50.18;101213.81;5015343;28;20029;-65
2023/07/04 10:41:37;;;;;;;7.85;3.08;;;;;;;21.54;51.39;101212.72;5014623;28;20488;-65
2023/07/04 10:44:08;;;;;;;7.25;3.50;;;;;;;21.58;47.43;101227.69;5015348;28;20061;-65
2023/07/04 10:46:42;;;;;;;18.95;3.70;;;;;;;21.67;49.35;101231.97;5015770;28;20492;-65
2023/07/04 10:49:15;;;;;;;8.30;2.90;;;;;;;21.94;45.67;101243.91;5015817;28;20041;-66
2023/07/04 10:51:44;;;;;;;8.98;3.15;;;;;;;21.85;45.29;101239.59;5015843;28;20120;-64
2023/07/04 10:54:11;;;;;;;;;;;;;;;21.69;48.47;101222.22;5015015;28;20029;-64
2023/07/04 10:56:37;;;;;;;9.10;3.35;;;;;;;21.58;47.68;101235.66;5014853;28;19920;-65
2023/07/04 10:59:28;;;;;;;9.73;3.00;;;;;;;21.59;48.49;101226.78;5014395;28;20026;-63
2023/07/04 11:02:04;;;;;;;9.88;3.47;;;;;;;21.68;48.09;101231.94;5015366;28;20034;-64
2023/07/04 11:04:36;;;;;;;9.70;2.88;;;;;;;21.75;47.70;101245.97;5014294;28;20044;-64
2023/07/04 11:10:02;;;;;;;7.70;3.10;;;;;;;21.51;49.56;101234.88;4120549;23;20081;-96
2023/07/04 11:12:33;;;;;;;8.35;2.83;;;;;;;21.58;48.09;101237.41;5008744;28;20032;-96
2023/07/04 11:15:08;;;;;;;6.75;2.53;;;;;;;21.52;49.66;101236.63;5002094;28;20024;-96
2023/07/04 11:17:35;;;;;;;6.20;2.40;;;;;;;21.44;46.06;101242.91;5014246;28;20088;-95
2023/07/04 11:20:17;;;;;;;7.13;3.00;;;;;;;21.08;45.58;101235.47;5015239;28;20052;-94
2023/07/04 11:22:51;;;;;;;8.00;2.90;;;;;;;20.70;47.38;101234.19;5012604;28;20502;-96
2023/07/04 11:25:43;;;;;;;8.07;2.90;;;;;;;20.57;48.08;101241.38;5013565;28;20093;-96
2023/07/04 11:28:32;;;;;;;8.38;2.90;;;;;;;20.36;49.39;101228.38;5013639;28;20149;-96
2023/07/04 11:31:30;;;;;;;8.68;3.13;;;;;;;20.61;49.55;101224.56;5005613;28;20372;-96
2023/07/04 11:33:58;;;;;;;8.57;2.80;;;;;;;20.86;49.17;101226.06;5029344;28;20287;-95
2023/07/04 11:36:36;;;;;;;12.85;3.20;;;;;;;21.04;48.88;101222.28;5010310;28;20145;-96
2023/07/04 11:39:04;;;;;;;13.57;3.10;;;;;;;21.13;49.42;101232.75;5016119;28;20029;-96
2023/07/04 11:41:38;;;;;;;8.25;2.70;;;;;;;21.20;48.46;101229.09;5010388;28;20021;-96
2023/07/04 11:44:32;;;;;;;9.02;2.90;;;;;;;21.33;47.46;101236.00;5002398;28;20035;-96
2023/07/04 11:47:08;;;;;;;7.63;3.03;;;;;;;21.57;48.50;101236.53;5009840;28;20033;-96
2023/07/04 11:49:54;;;;;;;5.80;2.28;;;;;;;21.60;46.32;101233.84;5013859;28;20128;-96
2023/07/04 11:52:30;;;;;;;6.40;2.50;;;;;;;21.55;47.09;101238.31;5011914;28;20029;-96
2023/07/04 11:55:12;;;;;;;9.35;2.65;;;;;;;21.63;47.62;101230.28;5011346;28;20029;-95
2023/07/04 11:58:00;;;;;;;7.68;2.60;;;;;;;21.78;47.75;101232.66;5019983;28;20037;-96
2023/07/04 12:00:38;;;;;;;7.72;2.65;;;;;;;21.86;47.33;101228.09;5015089;28;20059;-96
2023/07/04 12:03:24;;;;;;;7.00;2.85;;;;;;;21.89;47.26;101228.03;5013182;28;20061;-96
2023/07/04 12:06:02;;;;;;;8.27;2.80;;;;;;;21.80;48.37;101230.00;5012570;28;20065;-96
2023/07/04 12:08:39;;;;;;;9.90;2.90;;;;;;;21.90;47.50;101220.97;5005227;28;20033;-96
2023/07/04 12:11:14;;;;;;;7.20;2.60;;;;;;;21.88;47.76;101228.97;5010594;28;20133;-96
2023/07/04 12:13:48;;;;;;;8.95;2.70;;;;;;;21.80;47.72;101225.56;5010371;28;20037;-96
2023/07/04 12:16:56;;;;;;;7.18;2.67;;;;;;;21.83;49.15;101220.19;5022768;28;20037;-96
2023/07/04 12:19:43;;;;;;;7.53;2.97;;;;;;;21.73;48.49;101208.00;5052223;28;20037;-96
2023/07/04 12:22:24;;;;;;;10.13;2.97;;;;;;;21.81;49.56;101216.72;5035448;28;20033;-96
2023/07/04 12:24:52;;;;;;;6.90;3.00;;;;;;;21.98;48.64;101208.44;5038550;28;20013;-96
2023/07/04 12:27:29;;;;;;;13.70;3.28;;;;;;;21.91;46.14;101201.47;5016759;28;20069;-96
2023/07/04 12:29:54;;;;;;;8.15;2.88;;;;;;;21.78;46.64;101210.56;5018991;28;20041;-96
2023/07/04 12:32:22;;;;;;;7.78;2.75;;;;;;;21.75;47.08;101214.13;5018556;28;20387;-96
2023/07/04 12:34:47;;;;;;;6.20;2.80;;;;;;;21.80;46.39;101212.28;5024762;28;20021;-96
2023/07/04 12:37:27;;;;;;;9.23;3.67;;;;;;;21.91;46.21;101205.94;5008682;28;20515;-96
2023/07/04 12:40:01;;;;;;;7.28;3.17;;;;;;;21.95;47.73;101207.63;5020188;28;20029;-96
2023/07/04 12:42:38;;;;;;;10.02;3.10;;;;;;;22.27;47.49;101203.50;5012947;28;20017;-95
2023/07/04 12:45:17;;;;;;;8.25;3.50;;;;;;;22.60;47.75;101201.97;5012587;28;20029;-96
2023/07/04 12:47:47;;;;;;;11.70;3.50;;;;;;;22.64;45.96;101208.06;5011201;28;20124;-95